createdAt,value
2022-11-04T00:01:04.984Z,8.50
2022-11-04T00:03:53.213Z,7.90
2022-11-04T00:06:40.733Z,9.47
2022-11-04T00:09:30.079Z,8.23
2022-11-04T00:12:25.922Z,6.30
2022-11-04T00:15:31.391Z,6.53
2022-11-04T00:18:18.432Z,6.90
2022-11-04T00:21:24.176Z,5.07
2022-11-04T00:24:31.190Z,5.80
2022-11-04T00:27:39.091Z,8.97
2022-11-04T00:30:26.270Z,7.40
2022-11-04T00:33:25.759Z,6.20
2022-11-04T00:36:12.683Z,6.87
2022-11-04T00:38:59.637Z,8.87
2022-11-04T00:41:46.562Z,9.00
2022-11-04T00:44:33.520Z,8.47
2022-11-04T00:47:20.482Z,10.77
2022-11-04T00:50:08.064Z,11.20
2022-11-04T00:53:02.011Z,8.73
2022-11-04T00:55:48.950Z,8.87
2022-11-04T00:58:35.909Z,6.67
2022-11-04T01:01:22.984Z,7.40
2022-11-04T01:04:10.082Z,9.33
2022-11-04T01:06:57.138Z,9.73
2022-11-04T01:09:44.078Z,10.47
2022-11-04T01:12:31.078Z,8.50
2022-11-04T01:15:18.015Z,10.13
2022-11-04T01:18:05.729Z,9.40
2022-11-04T01:20:53.374Z,9.63
2022-11-04T01:23:42.082Z,9.83
2022-11-04T01:26:30.166Z,7.97
2022-11-04T01:29:17.178Z,10.70
2022-11-04T01:32:04.186Z,9.27
2022-11-04T01:34:51.137Z,9.23
2022-11-04T01:37:38.104Z,9.57
2022-11-04T01:40:25.657Z,9.30
2022-11-04T01:43:18.049Z,11.30
2022-11-04T01:46:05.130Z,7.87
2022-11-04T01:48:53.488Z,10.87
2022-11-04T01:51:42.537Z,6.87
2022-11-04T01:54:30.922Z,8.53
2022-11-04T01:57:23.527Z,10.30
2022-11-04T02:00:15.029Z,8.83
2022-11-04T02:03:06.329Z,12.20
2022-11-04T02:05:54.583Z,8.20
2022-11-04T02:08:42.653Z,11.40
2022-11-04T02:11:48.510Z,8.67
2022-11-04T02:14:36.413Z,9.47
2022-11-04T02:17:23.326Z,10.60
2022-11-04T02:20:19.456Z,8.93
2022-11-04T02:23:25.104Z,9.03
2022-11-04T02:26:15.062Z,8.23
2022-11-04T02:29:21.749Z,11.97
2022-11-04T02:32:11.472Z,7.60
2022-11-04T02:35:16.910Z,8.87
2022-11-04T02:38:25.651Z,10.37
2022-11-04T02:41:20.454Z,7.87
2022-11-04T02:44:16.537Z,8.37
2022-11-04T02:47:15.823Z,8.83
2022-11-04T02:50:10.055Z,7.67
2022-11-04T02:53:11.693Z,7.10
2022-11-04T02:56:00.923Z,8.97
2022-11-04T02:58:58.655Z,6.40
2022-11-04T03:01:49.311Z,8.83
2022-11-04T03:04:43.098Z,9.47
2022-11-04T03:07:35.052Z,7.47
2022-11-04T03:10:33.015Z,7.67
2022-11-04T03:13:33.780Z,8.67
2022-11-04T03:16:35.967Z,9.50
2022-11-04T03:19:57.569Z,8.77
2022-11-04T03:22:44.835Z,10.70
2022-11-04T03:25:41.062Z,11.33
2022-11-04T03:28:39.734Z,7.67
2022-11-04T03:31:37.102Z,6.63
2022-11-04T03:34:24.309Z,8.47
2022-11-04T03:37:11.479Z,9.93
2022-11-04T03:39:58.547Z,11.10
2022-11-04T03:42:50.585Z,11.67
2022-11-04T03:45:39.295Z,9.43
2022-11-04T03:48:26.452Z,10.17
2022-11-04T03:51:13.463Z,12.80
2022-11-04T03:54:01.022Z,11.60
2022-11-04T03:57:03.879Z,9.93
2022-11-04T04:00:10.087Z,11.70
2022-11-04T04:03:21.081Z,12.20
2022-11-04T04:06:18.235Z,12.73
2022-11-04T04:09:43.583Z,12.77
2022-11-04T04:12:40.336Z,13.53
2022-11-04T04:15:34.572Z,12.77
2022-11-04T04:18:32.947Z,12.27
2022-11-04T04:21:23.723Z,14.63
2022-11-04T04:24:33.006Z,13.13
2022-11-04T04:27:30.909Z,11.60
2022-11-04T04:30:18.105Z,13.63
2022-11-04T04:33:18.159Z,12.33
2022-11-04T04:36:08.716Z,12.03
2022-11-04T04:39:15.181Z,13.83
2022-11-04T04:42:21.969Z,14.80
2022-11-04T04:45:10.692Z,16.93
2022-11-04T04:47:58.094Z,13.00
2022-11-04T04:50:48.816Z,12.97
2022-11-04T04:53:35.826Z,11.93
2022-11-04T04:56:22.964Z,13.03
2022-11-04T04:59:09.921Z,13.37
2022-11-04T05:01:56.970Z,15.10
2022-11-04T05:04:43.998Z,14.00
2022-11-04T05:07:30.955Z,11.33
2022-11-04T05:10:18.706Z,13.97
2022-11-04T05:13:24.308Z,11.37
2022-11-04T05:16:11.481Z,12.67
2022-11-04T05:18:58.680Z,13.63
2022-11-04T05:21:45.619Z,11.37
2022-11-04T05:24:32.616Z,16.60
2022-11-04T05:27:19.761Z,12.57
2022-11-04T05:30:07.375Z,14.73
2022-11-04T05:32:57.323Z,13.87
2022-11-04T05:35:47.127Z,11.90
2022-11-04T05:38:34.171Z,10.53
2022-11-04T05:41:27.634Z,15.33
2022-11-04T05:44:15.787Z,13.97
2022-11-04T05:47:02.777Z,11.13
2022-11-04T05:49:49.732Z,11.17
2022-11-04T05:52:36.715Z,12.90
2022-11-04T05:55:24.046Z,15.43
2022-11-04T05:58:11.339Z,12.47
2022-11-04T06:01:22.911Z,12.27
2022-11-04T06:04:15.185Z,12.63
2022-11-04T06:07:02.125Z,11.97
2022-11-04T06:09:49.094Z,12.23
2022-11-04T06:12:36.260Z,9.63
2022-11-04T06:15:23.262Z,12.90
2022-11-04T06:18:10.551Z,10.03
2022-11-04T06:21:14.278Z,12.07
2022-11-04T06:24:02.187Z,8.50
2022-11-04T06:26:49.463Z,11.20
2022-11-04T06:29:40.184Z,9.63
2022-11-04T06:32:27.480Z,9.77
2022-11-04T06:35:14.435Z,10.10
2022-11-04T06:38:01.465Z,8.37
2022-11-04T06:40:48.472Z,8.33
2022-11-04T06:43:35.424Z,9.67
2022-11-04T06:46:42.289Z,9.47
2022-11-04T06:49:29.300Z,8.17
2022-11-04T06:52:16.237Z,8.10
2022-11-04T06:55:03.434Z,7.70
2022-11-04T06:57:50.402Z,6.90
2022-11-04T07:00:37.595Z,6.93
2022-11-04T07:03:24.554Z,8.13
2022-11-04T07:06:11.882Z,7.63
2022-11-04T07:09:00.807Z,5.97
2022-11-04T07:11:48.331Z,6.53
2022-11-04T07:14:35.325Z,6.57
2022-11-04T07:17:22.271Z,6.97
2022-11-04T07:20:13.028Z,5.90
2022-11-04T07:23:00.148Z,6.03
2022-11-04T07:25:47.621Z,5.53
2022-11-04T07:28:35.166Z,7.60
2022-11-04T07:31:22.405Z,5.13
2022-11-04T07:34:09.402Z,7.83
2022-11-04T07:36:56.362Z,6.47
2022-11-04T07:39:43.321Z,7.40
2022-11-04T07:42:30.268Z,5.40
2022-11-04T07:45:17.471Z,7.03
2022-11-04T07:48:04.476Z,4.43
2022-11-04T07:50:55.544Z,5.57
2022-11-04T07:53:42.671Z,6.20
2022-11-04T07:56:29.856Z,5.77
2022-11-04T07:59:16.850Z,4.77
2022-11-04T08:02:04.217Z,6.07
2022-11-04T08:04:51.286Z,5.03
2022-11-04T08:07:38.265Z,5.10
2022-11-04T08:10:25.409Z,6.17
2022-11-04T08:13:13.455Z,5.07
2022-11-04T08:16:06.480Z,6.00
2022-11-04T08:18:53.602Z,5.10
2022-11-04T08:21:40.601Z,5.90
2022-11-04T08:24:27.615Z,5.53
2022-11-04T08:27:15.557Z,5.87
2022-11-04T08:30:03.186Z,5.97
2022-11-04T08:32:50.201Z,6.07
2022-11-04T08:35:41.038Z,5.57
2022-11-04T08:38:29.111Z,8.10
2022-11-04T08:41:19.709Z,6.63
2022-11-04T08:44:07.735Z,6.37
2022-11-04T08:46:54.696Z,4.80
2022-11-04T08:49:42.058Z,7.03
2022-11-04T08:52:29.104Z,6.17
2022-11-04T08:55:16.150Z,6.77
2022-11-04T08:58:03.470Z,6.70
2022-11-04T09:00:51.146Z,5.77
2022-11-04T09:03:39.641Z,8.23
2022-11-04T09:06:30.380Z,6.33
2022-11-04T09:09:18.189Z,6.77
2022-11-04T09:12:08.493Z,6.10
2022-11-04T09:14:55.512Z,5.17
2022-11-04T09:17:44.240Z,8.83
2022-11-04T09:20:31.930Z,6.20
2022-11-04T09:23:19.141Z,5.80
2022-11-04T09:26:12.856Z,6.83
2022-11-04T09:29:00.270Z,6.90
2022-11-04T09:31:47.650Z,6.40
2022-11-04T09:34:34.824Z,7.30
2022-11-04T09:37:21.859Z,6.70
2022-11-04T09:40:15.865Z,6.90
2022-11-04T09:43:05.695Z,6.27
2022-11-04T09:45:52.843Z,6.00
2022-11-04T09:48:45.422Z,8.17
2022-11-04T09:51:53.149Z,6.57
2022-11-04T09:54:50.820Z,8.60
2022-11-04T09:57:37.836Z,6.33
2022-11-04T10:00:25.949Z,6.80
2022-11-04T10:03:37.763Z,8.33
2022-11-04T10:06:42.387Z,6.67
2022-11-04T10:09:52.903Z,6.00
2022-11-04T10:12:42.898Z,7.77
2022-11-04T10:15:43.110Z,5.70
2022-11-04T10:18:48.890Z,6.40
2022-11-04T10:22:09.892Z,5.97
2022-11-04T10:25:09.764Z,4.93
2022-11-04T10:27:57.927Z,5.17
2022-11-04T10:30:48.280Z,5.97
2022-11-04T10:33:40.968Z,5.13
2022-11-04T10:36:28.116Z,5.17
2022-11-04T10:39:34.472Z,4.80
2022-11-04T10:42:24.576Z,5.50
2022-11-04T10:45:13.779Z,4.23
2022-11-04T10:48:07.305Z,4.03
2022-11-04T10:50:56.180Z,4.00
2022-11-04T10:53:43.344Z,2.93
2022-11-04T10:56:36.559Z,4.40
2022-11-04T10:59:29.535Z,2.03
2022-11-04T11:02:17.265Z,2.40
2022-11-04T11:05:14.739Z,3.83
2022-11-04T11:08:01.710Z,2.10
2022-11-04T11:10:52.986Z,3.67
2022-11-04T11:13:43.177Z,3.37
2022-11-04T11:16:31.844Z,2.00
2022-11-04T11:19:21.958Z,3.90
2022-11-04T11:22:31.542Z,2.17
2022-11-04T11:25:31.854Z,3.60
2022-11-04T11:28:24.875Z,2.10
2022-11-04T11:31:18.686Z,2.70
2022-11-04T11:34:15.267Z,2.47
2022-11-04T11:37:04.825Z,3.80
2022-11-04T11:39:51.859Z,2.20
2022-11-04T11:42:42.048Z,2.33
2022-11-04T11:45:30.299Z,2.70
2022-11-04T11:48:32.204Z,2.47
2022-11-04T11:51:40.180Z,2.47
2022-11-04T11:54:33.712Z,3.20
2022-11-04T11:57:29.347Z,3.00
2022-11-04T12:03:31.128Z,2.90
2022-11-04T12:10:51.093Z,2.60
2022-11-04T12:13:48.518Z,5.30
2022-11-04T12:16:57.596Z,3.77
2022-11-04T12:20:10.156Z,5.57
2022-11-04T12:23:01.076Z,3.77
2022-11-04T12:26:25.933Z,3.00
2022-11-04T12:29:37.138Z,3.60
2022-11-04T12:32:37.392Z,4.77
2022-11-04T12:35:35.518Z,5.07
2022-11-04T12:38:28.645Z,9.20
2022-11-04T12:41:52.246Z,6.70
2022-11-04T12:44:54.071Z,3.77
2022-11-04T12:47:46.379Z,3.40
2022-11-04T12:50:48.972Z,4.13
2022-11-04T12:54:01.685Z,2.93
2022-11-04T12:56:58.673Z,4.30
2022-11-04T13:00:07.608Z,2.33
2022-11-04T13:03:21.636Z,3.20
2022-11-04T13:06:31.322Z,5.10
2022-11-04T13:09:29.000Z,4.97
2022-11-04T13:12:19.712Z,3.90
2022-11-04T13:15:20.946Z,2.47
2022-11-04T13:18:11.385Z,2.33
2022-11-04T13:21:06.565Z,2.30
2022-11-04T13:24:15.696Z,2.70
2022-11-04T13:27:13.223Z,5.10
2022-11-04T13:30:27.385Z,4.67
2022-11-04T13:33:23.878Z,3.03
2022-11-04T13:36:17.240Z,5.00
2022-11-04T13:39:17.736Z,3.10
2022-11-04T13:42:32.307Z,5.13
2022-11-04T13:45:20.220Z,2.07
2022-11-04T13:48:11.600Z,4.27
2022-11-04T13:51:06.596Z,5.10
2022-11-04T13:53:56.677Z,3.80
2022-11-04T13:56:43.732Z,3.90
2022-11-04T13:59:31.515Z,4.67
2022-11-04T14:02:21.461Z,5.27
2022-11-04T14:05:27.148Z,6.00
2022-11-04T14:08:16.970Z,4.20
2022-11-04T14:11:07.363Z,2.50
2022-11-04T14:14:02.366Z,2.80
2022-11-04T14:16:49.391Z,4.50
2022-11-04T14:20:00.896Z,2.03
2022-11-04T14:22:52.863Z,5.93
2022-11-04T14:25:44.342Z,3.70
2022-11-04T14:28:32.941Z,5.63
2022-11-04T14:31:40.083Z,9.77
2022-11-04T14:34:28.381Z,5.73
2022-11-04T14:37:15.291Z,4.17
2022-11-04T14:40:05.520Z,7.30
2022-11-04T14:42:58.229Z,3.57
2022-11-04T14:45:45.534Z,7.40
2022-11-04T14:48:33.113Z,4.07
2022-11-04T14:51:32.460Z,5.37
2022-11-04T14:54:22.549Z,4.97
2022-11-04T14:57:21.496Z,6.87
2022-11-04T15:00:35.360Z,2.60
2022-11-04T15:06:53.450Z,4.33
2022-11-04T15:09:46.865Z,3.30
2022-11-04T15:12:52.323Z,4.23
2022-11-04T15:15:48.632Z,4.73
2022-11-04T15:18:41.995Z,3.63
2022-11-04T15:21:29.086Z,3.80
2022-11-04T15:24:17.698Z,2.87
2022-11-04T15:27:07.016Z,2.57
2022-11-04T15:29:55.247Z,4.97
2022-11-04T15:32:56.704Z,3.93
2022-11-04T15:35:44.061Z,4.73
2022-11-04T15:38:32.609Z,4.73
2022-11-04T15:41:40.803Z,4.07
2022-11-04T15:44:30.788Z,3.90
2022-11-04T15:47:17.724Z,4.67
2022-11-04T15:50:21.615Z,7.43
2022-11-04T15:53:10.393Z,2.73
2022-11-04T15:55:57.835Z,4.63
2022-11-04T15:58:45.651Z,4.73
2022-11-04T16:01:33.256Z,3.13
2022-11-04T16:04:24.586Z,4.10
2022-11-04T16:07:11.514Z,2.73
2022-11-04T16:09:58.477Z,4.03
2022-11-04T16:12:45.752Z,5.23
2022-11-04T16:15:34.258Z,2.23
2022-11-04T16:18:58.708Z,4.87
2022-11-04T16:21:46.796Z,6.17
2022-11-04T16:24:36.617Z,4.47
2022-11-04T16:27:24.984Z,5.80
2022-11-04T16:30:20.605Z,3.97
2022-11-04T16:33:10.560Z,2.67
2022-11-04T16:35:57.791Z,2.23
2022-11-04T16:38:44.763Z,5.30
2022-11-04T16:41:36.476Z,4.43
2022-11-04T16:44:24.915Z,3.33
2022-11-04T16:47:12.130Z,5.07
2022-11-04T16:50:02.640Z,4.07
2022-11-04T16:52:51.072Z,3.27
2022-11-04T16:55:41.216Z,4.37
2022-11-04T16:58:28.484Z,3.57
2022-11-04T17:01:15.809Z,5.63
2022-11-04T17:04:04.189Z,5.47
2022-11-04T17:06:51.167Z,3.63
2022-11-04T17:09:38.160Z,6.10
2022-11-04T17:12:25.281Z,6.13
2022-11-04T17:15:13.704Z,7.67
2022-11-04T17:18:00.653Z,5.33
2022-11-04T17:20:55.559Z,4.33
2022-11-04T17:23:43.133Z,5.93
2022-11-04T17:26:30.092Z,7.23
2022-11-04T17:29:17.601Z,3.37
2022-11-04T17:32:05.220Z,3.43
2022-11-04T17:34:52.815Z,2.13
2022-11-04T17:37:39.952Z,5.03
2022-11-04T17:40:26.938Z,7.60
2022-11-04T17:43:32.437Z,7.93
2022-11-04T17:46:34.892Z,8.63
2022-11-04T17:49:23.854Z,7.33
2022-11-04T17:52:10.926Z,6.10
2022-11-04T17:54:57.947Z,5.20
2022-11-04T17:57:44.883Z,3.80
2022-11-04T18:00:32.126Z,3.27
2022-11-04T18:03:19.091Z,2.97
2022-11-04T18:06:06.587Z,2.60
2022-11-04T18:08:55.689Z,5.93
2022-11-04T18:12:01.889Z,6.00
2022-11-04T18:14:49.278Z,5.10
2022-11-04T18:17:43.800Z,7.83
2022-11-04T18:20:30.826Z,4.80
2022-11-04T18:23:18.162Z,7.67
2022-11-04T18:26:11.638Z,6.10
2022-11-04T18:28:59.314Z,5.73
2022-11-04T18:31:49.203Z,4.10
2022-11-04T18:34:36.617Z,6.97
2022-11-04T18:37:23.920Z,5.03
2022-11-04T18:40:11.774Z,4.27
2022-11-04T18:42:58.739Z,6.00
2022-11-04T18:45:45.659Z,7.97
2022-11-04T18:48:32.602Z,3.53
2022-11-04T18:51:22.234Z,4.93
2022-11-04T18:54:11.380Z,5.57
2022-11-04T18:56:58.362Z,5.27
2022-11-04T18:59:46.076Z,5.13
2022-11-04T19:02:33.386Z,4.70
2022-11-04T19:05:20.642Z,3.80
2022-11-04T19:08:07.905Z,7.23
2022-11-04T19:11:01.076Z,4.63
2022-11-04T19:13:57.977Z,6.90
2022-11-04T19:16:44.982Z,3.23
2022-11-04T19:19:31.968Z,5.83
2022-11-04T19:22:19.291Z,7.07
2022-11-04T19:25:06.899Z,8.10
2022-11-04T19:28:18.629Z,8.33
2022-11-04T19:31:02.409Z,7.30
2022-11-04T19:33:50.233Z,6.30
2022-11-04T19:36:37.544Z,6.93
2022-11-04T19:39:24.567Z,7.93
2022-11-04T19:42:34.876Z,4.97
2022-11-04T19:45:22.304Z,5.63
2022-11-04T19:48:10.090Z,7.47
2022-11-04T19:50:57.339Z,6.53
2022-11-04T19:53:44.562Z,4.70
2022-11-04T19:56:33.587Z,6.43
2022-11-04T19:59:20.640Z,5.40
2022-11-04T20:02:09.418Z,6.23
2022-11-04T20:04:56.443Z,4.23
2022-11-04T20:07:43.429Z,5.17
2022-11-04T20:10:30.358Z,12.93
2022-11-04T20:13:38.362Z,8.27
2022-11-04T20:16:33.055Z,5.97
2022-11-04T20:19:22.966Z,7.30
2022-11-04T20:22:10.548Z,6.07
2022-11-04T20:24:58.045Z,4.67
2022-11-04T20:27:45.031Z,6.50
2022-11-04T20:30:32.039Z,8.80
2022-11-04T20:33:19.112Z,9.13
2022-11-04T20:36:07.383Z,7.30
2022-11-04T20:39:03.894Z,7.23
2022-11-04T20:41:51.092Z,4.43
2022-11-04T20:44:38.511Z,8.00
2022-11-04T20:47:25.472Z,5.13
2022-11-04T20:50:12.464Z,7.87
2022-11-04T20:52:59.498Z,7.37
2022-11-04T20:55:48.813Z,9.60
2022-11-04T20:58:37.705Z,7.30
2022-11-04T21:01:27.444Z,5.90
2022-11-04T21:04:20.185Z,7.33
2022-11-04T21:07:07.414Z,7.03
2022-11-04T21:09:54.380Z,9.93
2022-11-04T21:12:41.410Z,5.00
2022-11-04T21:15:40.634Z,5.50
2022-11-04T21:18:28.071Z,10.60
2022-11-04T21:21:16.584Z,5.90
2022-11-04T21:24:05.985Z,6.47
2022-11-04T21:26:53.048Z,7.50
2022-11-04T21:29:40.065Z,6.43
2022-11-04T21:32:27.188Z,7.27
2022-11-04T21:35:14.117Z,6.13
2022-11-04T21:38:05.014Z,8.83
2022-11-04T21:40:52.012Z,8.33
2022-11-04T21:43:39.218Z,8.73
2022-11-04T21:46:28.020Z,6.83
2022-11-04T21:49:15.033Z,9.00
2022-11-04T21:52:02.358Z,5.23
2022-11-04T21:54:49.440Z,6.30
2022-11-04T21:57:37.100Z,8.80
2022-11-04T22:00:24.158Z,10.70
2022-11-04T22:03:11.786Z,9.70
2022-11-04T22:06:02.423Z,6.50
2022-11-04T22:08:54.274Z,7.97
2022-11-04T22:11:41.626Z,7.70
2022-11-04T22:14:29.450Z,6.60
2022-11-04T22:17:16.647Z,5.63
2022-11-04T22:20:04.705Z,6.67
2022-11-04T22:22:51.667Z,6.10
2022-11-04T22:25:38.671Z,12.27
2022-11-04T22:28:25.694Z,6.50
2022-11-04T22:31:19.588Z,6.47
2022-11-04T22:34:07.059Z,6.97
2022-11-04T22:36:54.034Z,11.20
2022-11-04T22:39:41.016Z,14.07
2022-11-04T22:42:28.055Z,7.37
2022-11-04T22:45:16.876Z,9.13
2022-11-04T22:48:04.318Z,6.93
2022-11-04T22:50:56.745Z,4.93
2022-11-04T22:53:44.019Z,5.03
2022-11-04T22:56:30.987Z,7.67
2022-11-04T22:59:17.933Z,11.93
2022-11-04T23:02:04.984Z,10.73
2022-11-04T23:04:52.039Z,8.83
2022-11-04T23:07:39.027Z,6.17
2022-11-04T23:10:48.823Z,7.13
2022-11-04T23:13:54.621Z,8.23
2022-11-04T23:17:02.361Z,11.07
2022-11-04T23:19:50.307Z,6.97
2022-11-04T23:22:56.163Z,6.73
2022-11-04T23:25:43.143Z,11.20
2022-11-04T23:28:48.680Z,6.60
2022-11-04T23:31:35.917Z,9.80
2022-11-04T23:34:42.053Z,6.07
2022-11-04T23:37:29.027Z,6.70
2022-11-04T23:40:16.019Z,8.93
2022-11-04T23:43:02.975Z,7.33
2022-11-04T23:46:11.100Z,9.00
2022-11-04T23:49:17.321Z,6.70
2022-11-04T23:52:23.231Z,8.00
2022-11-04T23:55:28.977Z,7.17
2022-11-04T23:58:34.399Z,12.90
